Time;durP1;ratioP1;P1;durP2;ratioP2;P2;SDS_P1;SDS_P2;PMS_P1;PMS_P2;Temp;Humidity;BMP_temperature;BMP_pressure;BME280_temperature;BME280_humidity;BME280_pressure;Samples;Min_cycle;Max_cycle;Signal;HPM_P1;HPM_P2
2022/06/01 00:01:13;;;;;;;0.50;0.50;;;11.80;1.00;;;;;;5013189;28;20227;-75
2022/06/01 00:03:42;;;;;;;0.50;0.50;;;11.70;1.00;;;;;;5015231;28;20657;-75
2022/06/01 00:06:09;;;;;;;0.40;0.40;;;11.70;1.00;;;;;;5014997;28;20177;-75
2022/06/01 00:08:34;;;;;;;0.43;0.43;;;11.70;1.00;;;;;;5013650;28;20181;-75
2022/06/01 00:11:00;;;;;;;0.50;0.50;;;11.70;1.00;;;;;;5012973;28;20201;-75
2022/06/01 00:13:26;;;;;;;0.40;0.40;;;11.70;1.00;;;;;;5134515;22;20310;-80
2022/06/01 00:15:52;;;;;;;0.50;0.50;;;11.60;1.00;;;;;;5053745;28;20187;-79
2022/06/01 00:18:18;;;;;;;0.60;0.60;;;11.50;1.00;;;;;;5053375;28;20538;-80
2022/06/01 00:20:45;;;;;;;0.40;0.40;;;11.50;1.00;;;;;;5052919;28;20210;-79
2022/06/01 00:23:12;;;;;;;0.40;0.40;;;11.40;1.00;;;;;;5034554;28;20212;-80
2022/06/01 00:25:37;;;;;;;0.37;0.37;;;11.40;1.00;;;;;;5034086;28;20277;-80
2022/06/01 00:28:03;;;;;;;0.50;0.50;;;11.40;1.10;;;;;;5034123;28;20184;-78
2022/06/01 00:30:29;;;;;;;0.60;0.60;;;11.40;9.80;;;;;;5032596;28;20184;-78
2022/06/01 00:32:55;;;;;;;0.50;0.50;;;11.40;24.90;;;;;;5033358;28;20210;-79
2022/06/01 00:35:23;;;;;;;0.50;0.50;;;11.40;10.50;;;;;;5032766;28;20180;-78
2022/06/01 00:37:48;;;;;;;0.50;0.50;;;11.40;5.00;;;;;;5032861;28;20553;-78
2022/06/01 00:40:16;;;;;;;0.40;0.40;;;11.50;6.30;;;;;;5032530;28;20214;-78
2022/06/01 00:42:44;;;;;;;0.57;0.57;;;11.50;1.30;;;;;;5032998;28;20338;-78
2022/06/01 00:45:12;;;;;;;0.50;0.50;;;11.50;1.00;;;;;;5033011;28;20179;-78
2022/06/01 00:47:38;;;;;;;0.43;0.43;;;11.40;1.00;;;;;;5033042;28;20219;-78
2022/06/01 00:50:07;;;;;;;0.60;0.60;;;11.50;1.00;;;;;;5032924;28;20180;-79
2022/06/01 00:52:36;;;;;;;0.40;0.40;;;11.40;1.00;;;;;;5033253;28;20592;-78
2022/06/01 00:55:12;;;;;;;0.40;0.40;;;11.40;1.00;;;;;;5032714;28;20641;-77
2022/06/01 00:57:38;;;;;;;0.40;0.40;;;11.40;1.00;;;;;;5032968;28;20175;-78
2022/06/01 01:00:09;;;;;;;0.50;0.50;;;11.40;1.00;;;;;;5032071;28;20262;-77
2022/06/01 01:02:36;;;;;;;0.50;0.50;;;11.40;1.00;;;;;;5031820;28;20202;-77
2022/06/01 01:05:04;;;;;;;0.40;0.40;;;11.40;1.00;;;;;;5032740;28;20214;-78
2022/06/01 01:07:30;;;;;;;0.50;0.50;;;11.50;1.00;;;;;;5033255;28;20176;-78
2022/06/01 01:09:56;;;;;;;0.50;0.50;;;11.40;1.00;;;;;;5032630;28;20267;-78
2022/06/01 01:12:22;;;;;;;0.50;0.50;;;11.40;1.00;;;;;;5032633;28;20585;-78
2022/06/01 01:14:48;;;;;;;0.50;0.50;;;11.30;1.00;;;;;;5032702;28;20176;-78
2022/06/01 01:17:13;;;;;;;0.40;0.40;;;11.30;1.00;;;;;;5032804;28;20191;-78
2022/06/01 01:19:51;;;;;;;0.50;0.50;;;11.20;1.00;;;;;;5032129;28;20637;-77
2022/06/01 01:22:26;;;;;;;0.50;0.50;;;11.00;1.00;;;;;;5032597;28;20199;-78
2022/06/01 01:25:16;;;;;;;0.40;0.40;;;11.00;1.00;;;;;;5033255;28;20195;-78
2022/06/01 01:27:42;;;;;;;0.50;0.50;;;10.80;1.00;;;;;;5033145;28;20175;-78
2022/06/01 01:30:37;;;;;;;0.50;0.50;;;10.80;1.00;;;;;;5032897;28;20173;-79
2022/06/01 01:33:13;;;;;;;0.50;0.50;;;10.70;24.50;;;;;;5032770;28;20633;-78
2022/06/01 01:35:41;;;;;;;0.40;0.40;;;10.70;29.30;;;;;;5033209;28;20183;-78
2022/06/01 01:38:14;;;;;;;0.40;0.40;;;10.70;36.70;;;;;;5033119;28;20183;-78
2022/06/01 01:40:40;;;;;;;0.50;0.50;;;10.60;73.50;;;;;;5032433;28;20214;-79
2022/06/01 01:43:07;;;;;;;0.50;0.50;;;10.60;99.90;;;;;;5032725;28;20236;-78
2022/06/01 01:45:36;;;;;;;0.50;0.50;;;10.60;90.50;;;;;;5033150;28;20203;-79
2022/06/01 01:48:01;;;;;;;0.50;0.50;;;10.60;80.50;;;;;;5033083;28;20648;-78
2022/06/01 01:50:27;;;;;;;0.50;0.50;;;10.70;82.70;;;;;;5032253;28;20266;-79
2022/06/01 01:52:53;;;;;;;0.50;0.50;;;10.70;71.30;;;;;;5032773;28;20219;-77
2022/06/01 01:55:53;;;;;;;0.60;0.60;;;10.70;72.10;;;;;;5032749;28;20665;-78
2022/06/01 01:58:37;;;;;;;0.60;0.60;;;10.70;89.50;;;;;;5032723;28;20262;-78
2022/06/01 02:01:13;;;;;;;0.50;0.50;;;10.60;72.50;;;;;;5032656;28;20224;-79
2022/06/01 02:04:02;;;;;;;0.50;0.50;;;10.60;82.10;;;;;;5032229;28;20180;-79
2022/06/01 02:06:40;;;;;;;0.50;0.50;;;10.60;89.90;;;;;;5032734;28;20722;-78
2022/06/01 02:09:11;;;;;;;0.53;0.53;;;10.60;55.60;;;;;;5031887;28;20229;-79
2022/06/01 02:14:38;;;;;;;0.50;0.50;;;10.50;54.40;;;;;;5035089;28;20203;-78
2022/06/01 02:17:11;;;;;;;0.60;0.60;;;10.40;73.60;;;;;;5036028;28;20225;-78
2022/06/01 02:20:03;;;;;;;0.50;0.50;;;10.40;57.70;;;;;;5035023;28;20176;-77
2022/06/01 02:22:29;;;;;;;0.50;0.50;;;10.40;70.30;;;;;;5022721;28;20208;-77
2022/06/01 02:24:57;;;;;;;0.50;0.50;;;10.40;73.10;;;;;;5035267;28;20652;-78
2022/06/01 02:27:24;;;;;;;0.50;0.50;;;10.40;50.00;;;;;;5035173;28;20700;-78
2022/06/01 02:29:55;;;;;;;0.60;0.60;;;10.30;45.20;;;;;;5031393;28;20172;-77
2022/06/01 02:32:22;;;;;;;0.50;0.50;;;10.20;75.00;;;;;;5033831;28;20215;-79
2022/06/01 02:34:49;;;;;;;0.50;0.50;;;10.20;91.30;;;;;;5038295;28;20269;-80
2022/06/01 02:37:16;;;;;;;0.50;0.50;;;10.10;45.10;;;;;;5038885;28;20183;-80
2022/06/01 02:39:46;;;;;;;0.50;0.50;;;10.00;58.50;;;;;;5039002;28;20183;-80
2022/06/01 02:42:26;;;;;;;0.40;0.40;;;9.90;55.80;;;;;;5039525;28;20207;-79
2022/06/01 02:45:01;;;;;;;0.50;0.50;;;9.90;61.30;;;;;;5039085;28;20183;-79
2022/06/01 02:47:30;;;;;;;0.60;0.60;;;9.90;42.80;;;;;;5038722;28;20527;-80
2022/06/01 02:49:56;;;;;;;0.50;0.50;;;9.90;52.30;;;;;;5038578;28;20179;-80
2022/06/01 02:52:22;;;;;;;0.40;0.40;;;9.90;99.90;;;;;;5038578;28;20196;-79
2022/06/01 02:54:47;;;;;;;0.40;0.40;;;9.80;99.90;;;;;;5038469;28;20180;-79
2022/06/01 02:57:14;;;;;;;0.50;0.50;;;9.80;99.90;;;;;;5039807;28;20234;-80
2022/06/01 02:59:40;;;;;;;0.50;0.50;;;9.80;99.90;;;;;;5039838;28;20609;-80
2022/06/01 03:02:06;;;;;;;0.50;0.50;;;9.80;99.90;;;;;;5041321;28;20200;-79
2022/06/01 03:04:32;;;;;;;0.70;0.70;;;9.80;99.90;;;;;;5045237;28;20254;-79
2022/06/01 03:06:58;;;;;;;0.50;0.50;;;9.80;99.90;;;;;;5036464;28;20253;-79
2022/06/01 03:09:23;;;;;;;0.57;0.57;;;9.80;99.90;;;;;;5035942;28;20517;-79
2022/06/01 03:11:49;;;;;;;0.50;0.50;;;9.70;87.40;;;;;;5036323;28;20192;-79
2022/06/01 03:14:14;;;;;;;0.50;0.50;;;9.70;88.00;;;;;;5034901;28;20610;-78
2022/06/01 03:16:40;;;;;;;0.60;0.60;;;9.70;84.70;;;;;;5031569;28;20211;-79
2022/06/01 03:19:06;;;;;;;0.50;0.50;;;9.60;86.30;;;;;;5035881;28;20226;-80
2022/06/01 03:21:32;;;;;;;0.60;0.60;;;9.60;78.10;;;;;;5036818;28;20222;-80
2022/06/01 03:23:58;;;;;;;0.60;0.60;;;9.60;67.00;;;;;;5036348;28;20176;-79
2022/06/01 03:26:23;;;;;;;0.50;0.50;;;9.60;59.70;;;;;;5035647;28;20277;-79
2022/06/01 03:28:49;;;;;;;0.50;0.50;;;9.60;63.00;;;;;;5035610;28;20176;-78
2022/06/01 03:31:15;;;;;;;0.60;0.60;;;9.60;93.20;;;;;;5035852;28;20227;-79
2022/06/01 03:33:41;;;;;;;0.60;0.60;;;9.60;78.00;;;;;;5036333;28;20184;-78
2022/06/01 03:36:06;;;;;;;0.50;0.50;;;9.60;51.50;;;;;;5036249;28;20187;-79
2022/06/01 03:38:32;;;;;;;0.50;0.50;;;9.50;30.70;;;;;;5035363;28;20241;-79
2022/06/01 03:40:58;;;;;;;0.63;0.63;;;9.50;26.90;;;;;;5034835;28;20212;-79
2022/06/01 03:43:24;;;;;;;0.60;0.60;;;9.50;21.90;;;;;;5036212;28;20207;-79
2022/06/01 03:45:56;;;;;;;0.53;0.53;;;9.50;23.90;;;;;;5035719;28;20200;-78
2022/06/01 03:48:30;;;;;;;0.60;0.60;;;9.50;25.20;;;;;;5035474;28;20233;-79
2022/06/01 03:50:57;;;;;;;0.50;0.50;;;9.50;23.10;;;;;;5034217;28;20199;-77
2022/06/01 03:53:24;;;;;;;0.60;0.60;;;9.60;37.90;;;;;;5035777;28;20204;-79
2022/06/01 03:55:50;;;;;;;0.60;0.60;;;9.70;69.80;;;;;;5036017;28;20171;-79
2022/06/01 03:58:19;;;;;;;0.60;0.60;;;9.70;81.90;;;;;;5036728;28;20176;-79
2022/06/01 04:00:46;;;;;;;0.50;0.50;;;9.70;88.50;;;;;;5035643;28;20234;-79
2022/06/01 04:03:12;;;;;;;0.50;0.50;;;9.70;97.00;;;;;;5035814;28;20663;-78
2022/06/01 04:05:38;;;;;;;0.60;0.60;;;9.70;94.10;;;;;;5035112;28;20595;-79
2022/06/01 04:08:05;;;;;;;0.50;0.50;;;9.70;97.90;;;;;;5034859;28;20179;-78
2022/06/01 04:10:33;;;;;;;0.60;0.60;;;9.70;99.90;;;;;;5034611;28;20203;-78
2022/06/01 04:12:58;;;;;;;0.47;0.47;;;9.80;99.90;;;;;;5035310;28;20275;-79
2022/06/01 04:15:24;;;;;;;0.50;0.50;;;9.90;99.90;;;;;;5036274;28;20259;-79
2022/06/01 04:17:49;;;;;;;0.70;0.70;;;10.00;99.90;;;;;;5035752;28;20521;-79
2022/06/01 04:20:15;;;;;;;0.60;0.60;;;10.10;91.70;;;;;;5034958;28;20222;-79
2022/06/01 04:22:42;;;;;;;0.50;0.50;;;10.20;89.70;;;;;;5035092;28;20188;-78
2022/06/01 04:25:13;;;;;;;0.60;0.60;;;10.30;99.90;;;;;;5034741;28;20271;-78
2022/06/01 04:27:39;;;;;;;0.53;0.53;;;10.50;99.90;;;;;;5034779;28;20172;-78
2022/06/01 04:30:07;;;;;;;0.53;0.53;;;10.70;99.90;;;;;;5034185;28;20502;-79
2022/06/01 04:32:33;;;;;;;0.50;0.50;;;10.90;99.90;;;;;;5035202;28;20195;-78
2022/06/01 04:35:03;;;;;;;0.60;0.60;;;11.20;99.90;;;;;;5035426;28;20772;-79
2022/06/01 04:37:28;;;;;;;0.60;0.60;;;11.30;99.90;;;;;;5034505;28;20572;-77
2022/06/01 04:39:54;;;;;;;0.50;0.50;;;11.30;1.00;;;;;;5034812;28;20186;-78
2022/06/01 04:42:19;;;;;;;0.60;0.60;;;11.30;1.00;;;;;;5035526;28;20196;-79
2022/06/01 04:44:46;;;;;;;0.50;0.50;;;11.20;1.00;;;;;;5035168;28;20243;-78
2022/06/01 04:47:11;;;;;;;0.50;0.50;;;11.20;46.80;;;;;;5035914;28;20203;-78
2022/06/01 04:49:37;;;;;;;0.60;0.60;;;11.00;59.60;;;;;;5036072;28;20191;-79
2022/06/01 04:52:04;;;;;;;0.50;0.50;;;11.10;99.90;;;;;;5034897;28;20207;-79
2022/06/01 04:54:29;;;;;;;0.60;0.60;;;11.40;99.90;;;;;;5034595;28;20606;-79
2022/06/01 04:56:55;;;;;;;0.40;0.40;;;11.60;8.30;;;;;;5034810;28;20207;-78
2022/06/01 04:59:21;;;;;;;0.50;0.50;;;11.90;1.00;;;;;;5034151;28;20191;-79
2022/06/01 05:01:46;;;;;;;0.43;0.43;;;12.30;1.00;;;;;;5034716;28;20233;-79
2022/06/01 05:04:12;;;;;;;0.43;0.43;;;12.70;1.00;;;;;;5034380;28;20176;-78
2022/06/01 05:06:38;;;;;;;0.50;0.50;;;12.90;1.00;;;;;;5034376;28;20187;-79
2022/06/01 05:09:03;;;;;;;0.50;0.50;;;13.10;1.00;;;;;;5033468;28;20211;-77
2022/06/01 05:11:29;;;;;;;0.53;0.53;;;13.10;1.00;;;;;;5034254;28;20244;-79
2022/06/01 05:13:55;;;;;;;0.40;0.40;;;13.20;1.00;;;;;;5035563;28;20199;-77
2022/06/01 05:16:21;;;;;;;0.40;0.40;;;13.20;1.00;;;;;;5033260;28;20782;-77
2022/06/01 05:18:46;;;;;;;0.40;0.40;;;13.30;1.00;;;;;;5032003;28;20711;-79
2022/06/01 05:21:12;;;;;;;0.40;0.40;;;13.30;1.00;;;;;;5032139;28;20704;-78
2022/06/01 05:23:37;;;;;;;0.50;0.50;;;13.20;1.00;;;;;;5032423;28;20718;-78
2022/06/01 05:26:04;;;;;;;0.50;0.50;;;13.10;1.00;;;;;;5028245;28;20258;-78
2022/06/01 05:28:32;;;;;;;0.57;0.57;;;13.30;1.00;;;;;;5032571;28;20172;-77
2022/06/01 05:30:59;;;;;;;0.50;0.50;;;13.30;1.00;;;;;;5032511;28;20188;-78
2022/06/01 05:33:25;;;;;;;0.40;0.40;;;13.30;1.00;;;;;;5032788;28;20186;-78
2022/06/01 05:35:51;;;;;;;0.53;0.53;;;13.40;1.00;;;;;;5033372;28;20176;-78
2022/06/01 05:38:16;;;;;;;0.47;0.47;;;13.40;1.00;;;;;;5027363;28;20179;-77
2022/06/01 05:40:42;;;;;;;0.40;0.40;;;13.40;1.00;;;;;;5013797;28;20214;-78
2022/06/01 05:43:10;;;;;;;0.40;0.40;;;13.50;1.00;;;;;;5032104;28;20176;-77
2022/06/01 05:45:36;;;;;;;0.40;0.40;;;13.60;1.00;;;;;;5030883;28;20493;-77
2022/06/01 05:48:01;;;;;;;0.43;0.43;;;13.70;1.00;;;;;;5031995;28;20231;-77
2022/06/01 05:50:27;;;;;;;0.40;0.40;;;13.80;1.00;;;;;;5035083;28;20290;-77
2022/06/01 05:52:52;;;;;;;0.40;0.40;;;14.00;1.00;;;;;;5039175;28;20246;-76
2022/06/01 05:55:18;;;;;;;0.40;0.40;;;14.00;1.00;;;;;;5035310;28;20459;-77
2022/06/01 05:57:43;;;;;;;0.40;0.40;;;14.10;1.00;;;;;;5034762;28;20191;-77
2022/06/01 06:00:11;;;;;;;0.50;0.50;;;14.10;1.00;;;;;;5037638;28;20207;-77
2022/06/01 06:02:40;;;;;;;0.40;0.40;;;14.10;1.00;;;;;;5039304;28;20294;-78
2022/06/01 06:06:11;;;;;;;0.40;0.40;;;14.20;1.00;;;;;;5037767;28;20515;-78
2022/06/01 06:07:52;;;;;;;0.40;0.40;;;14.20;1.00;;;;;;5038375;28;20590;-79
2022/06/01 06:10:18;;;;;;;0.50;0.50;;;14.50;1.00;;;;;;5038129;28;20176;-79
2022/06/01 06:15:13;;;;;;;0.50;0.50;;;14.70;99.90;;;;;;5038922;28;20219;-81
2022/06/01 06:17:39;;;;;;;0.40;0.40;;;14.80;99.90;;;;;;5041273;28;20180;-79
2022/06/01 06:20:05;;;;;;;0.40;0.40;;;14.90;99.90;;;;;;5038796;28;20203;-79
2022/06/01 06:22:31;;;;;;;0.30;0.30;;;15.00;1.00;;;;;;5040158;28;20508;-79
2022/06/01 06:24:56;;;;;;;0.30;0.30;;;15.20;99.90;;;;;;5043428;28;20259;-79
2022/06/01 06:27:22;;;;;;;0.40;0.40;;;15.20;1.00;;;;;;5043551;28;20172;-78
2022/06/01 06:29:47;;;;;;;0.40;0.40;;;15.40;99.90;;;;;;5039894;28;20196;-77
2022/06/01 06:32:13;;;;;;;0.50;0.50;;;15.40;1.00;;;;;;5036413;28;20281;-77
2022/06/01 06:34:39;;;;;;;0.40;0.40;;;15.50;1.00;;;;;;5039305;28;20699;-77
2022/06/01 06:37:05;;;;;;;0.40;0.40;;;15.60;1.00;;;;;;5037704;28;20640;-79
2022/06/01 06:39:31;;;;;;;0.40;0.40;;;15.60;62.70;;;;;;5044571;28;20180;-78
2022/06/01 06:41:56;;;;;;;0.37;0.37;;;15.70;1.00;;;;;;5048793;28;20226;-77
2022/06/01 06:44:22;;;;;;;0.30;0.30;;;15.80;99.90;;;;;;5045377;28;20178;-78
2022/06/01 06:46:47;;;;;;;0.40;0.40;;;15.90;99.90;;;;;;5047070;28;20645;-77
2022/06/01 06:49:13;;;;;;;0.30;0.30;;;16.10;1.00;;;;;;5037378;28;20183;-77
2022/06/01 06:51:39;;;;;;;0.50;0.50;;;16.10;1.00;;;;;;5037744;28;20200;-77
2022/06/01 06:54:04;;;;;;;0.30;0.30;;;16.20;99.90;;;;;;5041428;28;20191;-77
2022/06/01 06:56:30;;;;;;;0.30;0.30;;;16.30;1.00;;;;;;5045562;28;20184;-77
2022/06/01 06:58:56;;;;;;;0.33;0.33;;;16.40;99.90;;;;;;5045055;28;20201;-78
2022/06/01 07:01:21;;;;;;;0.33;0.33;;;16.50;1.00;;;;;;5045863;28;20243;-77
2022/06/01 07:03:47;;;;;;;0.40;0.40;;;16.70;1.00;;;;;;5050368;28;20182;-77
2022/06/01 07:06:12;;;;;;;0.40;0.40;;;16.80;99.90;;;;;;5052855;28;20175;-76
2022/06/01 07:08:44;;;;;;;0.40;0.40;;;17.00;1.00;;;;;;5044570;28;20561;-77
2022/06/01 07:11:10;;;;;;;0.30;0.30;;;17.20;1.00;;;;;;5043363;28;20639;-78
2022/06/01 07:13:36;;;;;;;0.40;0.40;;;17.20;1.00;;;;;;5042588;28;20222;-78
2022/06/01 07:16:11;;;;;;;0.30;0.30;;;17.30;1.00;;;;;;5046001;28;20180;-77
2022/06/01 07:18:38;;;;;;;0.50;0.50;;;17.50;1.00;;;;;;5045764;28;20748;-78
2022/06/01 07:21:04;;;;;;;0.20;0.20;;;17.70;1.00;;;;;;5047057;28;20215;-77
2022/06/01 07:23:30;;;;;;;0.40;0.40;;;18.00;1.00;;;;;;5055249;28;20168;-78
2022/06/01 07:25:56;;;;;;;0.33;0.33;;;18.10;99.90;;;;;;5051027;28;20172;-77
2022/06/01 07:28:22;;;;;;;0.30;0.30;;;18.30;99.90;;;;;;5048108;28;20184;-77
2022/06/01 07:30:56;;;;;;;0.50;0.50;;;18.40;99.90;;;;;;5037510;28;20577;-78
2022/06/01 07:33:23;;;;;;;0.30;0.30;;;18.60;99.90;;;;;;5037342;28;20226;-78
2022/06/01 07:35:49;;;;;;;0.30;0.30;;;18.90;99.90;;;;;;5036488;28;20180;-79
2022/06/01 07:43:43;;;;;;;0.20;0.20;;;20.20;1.00;;;;;;5037566;28;20636;-78
2022/06/01 07:46:09;;;;;;;0.20;0.20;;;20.70;1.00;;;;;;5040302;28;20254;-77
2022/06/01 07:48:35;;;;;;;0.30;0.30;;;20.70;1.00;;;;;;5048798;28;20184;-78
2022/06/01 07:51:00;;;;;;;0.20;0.20;;;20.60;1.00;;;;;;5040255;28;20196;-82
2022/06/01 07:53:26;;;;;;;0.20;0.20;;;20.90;1.00;;;;;;5045501;28;20180;-77
2022/06/01 07:55:52;;;;;;;0.30;0.30;;;21.30;1.00;;;;;;5043757;28;20216;-79
2022/06/01 07:58:18;;;;;;;0.23;0.23;;;21.80;1.00;;;;;;5035306;28;20180;-77
2022/06/01 08:00:43;;;;;;;0.37;0.37;;;22.30;1.00;;;;;;5037127;28;20218;-77
2022/06/01 08:03:14;;;;;;;0.30;0.30;;;22.50;1.00;;;;;;5034789;28;20183;-79
2022/06/01 08:05:40;;;;;;;0.30;0.30;;;22.60;1.00;;;;;;5036354;28;20195;-78
2022/06/01 08:08:06;;;;;;;0.30;0.30;;;23.10;1.00;;;;;;5033560;28;20183;-78
2022/06/01 08:10:32;;;;;;;0.30;0.30;;;23.40;1.00;;;;;;5035003;28;20217;-78
2022/06/01 08:13:06;;;;;;;0.20;0.20;;;23.70;1.00;;;;;;5034539;28;20200;-78
2022/06/01 08:15:34;;;;;;;0.30;0.30;;;23.80;1.00;;;;;;5035151;28;20239;-77
2022/06/01 08:18:00;;;;;;;0.30;0.30;;;24.40;1.00;;;;;;5037760;28;20554;-77
2022/06/01 08:20:28;;;;;;;0.30;0.30;;;24.80;1.00;;;;;;5042744;28;20218;-78
2022/06/01 08:22:54;;;;;;;0.30;0.30;;;24.60;1.00;;;;;;5045323;28;20207;-78
2022/06/01 08:25:22;;;;;;;0.30;0.30;;;24.60;1.00;;;;;;5043371;28;20180;-77
2022/06/01 08:27:48;;;;;;;0.30;0.30;;;24.80;1.00;;;;;;5043650;28;20176;-78
2022/06/01 08:30:15;;;;;;;0.30;0.30;;;25.10;1.00;;;;;;5049802;28;20199;-79
2022/06/01 08:32:41;;;;;;;0.30;0.30;;;24.50;1.00;;;;;;5046674;28;20199;-77
2022/06/01 08:35:10;;;;;;;0.30;0.30;;;24.50;1.00;;;;;;5035325;28;20757;-78
2022/06/01 08:37:36;;;;;;;0.40;0.40;;;24.90;1.00;;;;;;5036372;28;20179;-77
2022/06/01 08:40:05;;;;;;;0.40;0.40;;;25.00;1.00;;;;;;5038181;28;20244;-77
2022/06/01 08:42:32;;;;;;;0.30;0.30;;;25.50;1.00;;;;;;5037988;28;20199;-80
2022/06/01 08:45:04;;;;;;;0.40;0.40;;;25.30;1.00;;;;;;5039444;28;20180;-79
2022/06/01 08:47:38;;;;;;;0.40;0.40;;;25.10;1.00;;;;;;5038990;28;20204;-79
2022/06/01 08:50:12;;;;;;;0.40;0.40;;;24.90;1.00;;;;;;5037796;28;20176;-79
2022/06/01 08:52:37;;;;;;;0.30;0.30;;;24.40;1.00;;;;;;5038050;28;20200;-78
2022/06/01 08:55:03;;;;;;;0.30;0.30;;;24.50;1.00;;;;;;5037475;28;20190;-79
2022/06/01 08:57:42;;;;;;;0.33;0.33;;;24.20;1.00;;;;;;5035699;28;20180;-78
2022/06/01 09:00:12;;;;;;;0.30;0.30;;;23.70;1.00;;;;;;5038760;28;20221;-80
2022/06/01 09:03:03;;;;;;;0.30;0.30;;;24.20;1.00;;;;;;5041669;28;20200;-79
2022/06/01 09:05:52;;;;;;;0.40;0.40;;;24.90;1.00;;;;;;5041471;28;20172;-81
2022/06/01 09:08:47;;;;;;;0.30;0.30;;;25.80;1.00;;;;;;5041066;28;20259;-80
2022/06/01 09:11:17;;;;;;;0.40;0.40;;;26.00;1.00;;;;;;5038200;28;20192;-80
2022/06/01 09:13:57;;;;;;;0.30;0.30;;;25.30;1.00;;;;;;5037515;28;20194;-79
2022/06/01 09:16:37;;;;;;;0.30;0.30;;;24.20;1.00;;;;;;5037950;28;20186;-79
2022/06/01 09:19:04;;;;;;;0.40;0.40;;;23.50;1.00;;;;;;5035971;28;20181;-79
2022/06/01 09:24:22;;;;;;;0.30;0.30;;;22.70;1.00;;;;;;5038982;28;20197;-78
2022/06/01 09:26:58;;;;;;;0.30;0.30;;;22.90;1.00;;;;;;5039799;28;20196;-79
2022/06/01 09:29:29;;;;;;;0.30;0.30;;;23.40;1.00;;;;;;5040169;28;20171;-78
2022/06/01 09:32:00;;;;;;;0.30;0.30;;;23.80;1.00;;;;;;5041470;28;20223;-78
2022/06/01 09:34:40;;;;;;;0.30;0.30;;;24.00;1.00;;;;;;5038912;28;20195;-79
2022/06/01 09:37:13;;;;;;;0.40;0.40;;;24.00;1.00;;;;;;5039859;28;20179;-79
2022/06/01 09:39:51;;;;;;;0.40;0.40;;;24.00;1.00;;;;;;5041056;28;20195;-79
2022/06/01 09:42:25;;;;;;;0.30;0.30;;;24.00;1.00;;;;;;5042223;28;20222;-79
2022/06/01 09:44:54;;;;;;;0.30;0.30;;;24.00;1.00;;;;;;5042281;28;20176;-79
2022/06/01 09:47:43;;;;;;;0.30;0.30;;;24.10;1.00;;;;;;5041768;28;20195;-79
2022/06/01 09:50:29;;;;;;;0.37;0.37;;;24.00;1.00;;;;;;5040436;28;20673;-79
2022/06/01 09:53:01;;;;;;;0.30;0.30;;;24.50;1.00;;;;;;5040429;28;20204;-79
2022/06/01 09:55:29;;;;;;;0.30;0.30;;;24.60;1.00;;;;;;5039347;28;20258;-79
2022/06/01 09:58:09;;;;;;;0.40;0.40;;;24.50;1.00;;;;;;5035825;28;20187;-79
2022/06/01 10:06:25;;;;;;;0.50;0.50;;;25.40;1.00;;;;;;5044049;28;20731;-79
2022/06/01 10:09:09;;;;;;;0.33;0.33;;;25.50;1.00;;;;;;5039399;28;20210;-79
2022/06/01 10:11:40;;;;;;;0.37;0.37;;;25.50;1.00;;;;;;5040148;28;20246;-79
2022/06/01 10:14:31;;;;;;;0.40;0.40;;;25.40;1.00;;;;;;5041590;28;20191;-79
2022/06/01 10:17:19;;;;;;;0.30;0.30;;;25.60;1.00;;;;;;5043367;28;20184;-79
2022/06/01 10:20:18;;;;;;;0.30;0.30;;;26.20;1.00;;;;;;5040778;28;20199;-79
2022/06/01 10:23:14;;;;;;;0.30;0.30;;;26.30;1.00;;;;;;5038457;28;20210;-79
2022/06/01 10:26:02;;;;;;;0.30;0.30;;;25.90;1.00;;;;;;5044137;28;20250;-77
2022/06/01 10:28:36;;;;;;;0.43;0.43;;;26.00;1.00;;;;;;5035227;28;20168;-77
2022/06/01 10:31:04;;;;;;;0.40;0.40;;;26.40;1.00;;;;;;5040946;28;20195;-78
2022/06/01 10:33:44;;;;;;;0.40;0.40;;;26.30;1.00;;;;;;5039507;28;20180;-77
2022/06/01 10:36:26;;;;;;;0.40;0.40;;;26.20;1.00;;;;;;5035402;28;20187;-77
2022/06/01 10:39:08;;;;;;;0.40;0.40;;;26.60;1.00;;;;;;5037655;28;20257;-77
2022/06/01 10:42:15;;;;;;;0.30;0.30;;;26.90;1.00;;;;;;5035783;28;20223;-77
2022/06/01 10:44:43;;;;;;;0.30;0.30;;;27.30;1.00;;;;;;5033450;28;20189;-78
2022/06/01 10:47:18;;;;;;;0.30;0.30;;;27.20;1.00;;;;;;5037762;28;20562;-78
2022/06/01 10:50:00;;;;;;;0.40;0.40;;;27.20;1.00;;;;;;5041473;28;20286;-77
2022/06/01 10:52:48;;;;;;;0.40;0.40;;;27.20;1.00;;;;;;5034835;28;20230;-77
2022/06/01 10:55:21;;;;;;;0.40;0.40;;;27.10;1.00;;;;;;5035267;28;20687;-77
2022/06/01 10:57:49;;;;;;;0.50;0.50;;;27.00;1.00;;;;;;5034794;28;20176;-77
2022/06/01 11:00:20;;;;;;;0.40;0.40;;;27.10;1.00;;;;;;5035611;28;20668;-78
2022/06/01 11:03:13;;;;;;;0.30;0.30;;;27.10;1.00;;;;;;5037166;28;20397;-77
2022/06/01 11:05:49;;;;;;;0.30;0.30;;;26.50;1.00;;;;;;5039105;28;20195;-78
2022/06/01 11:08:40;;;;;;;0.37;0.37;;;26.20;1.00;;;;;;5042899;28;20255;-77
2022/06/01 11:11:18;;;;;;;0.40;0.40;;;26.50;1.00;;;;;;5044010;28;20203;-77
2022/06/01 11:14:09;;;;;;;0.40;0.40;;;26.70;1.00;;;;;;5036936;28;20183;-78
2022/06/01 11:17:01;;;;;;;0.40;0.40;;;26.70;1.00;;;;;;5042649;28;20180;-78
2022/06/01 11:19:47;;;;;;;0.40;0.40;;;26.20;1.00;;;;;;5038893;28;20538;-82
2022/06/01 11:22:28;;;;;;;0.30;0.30;;;26.40;1.00;;;;;;5037006;28;20235;-78
2022/06/01 11:25:14;;;;;;;0.20;0.20;;;26.40;1.00;;;;;;5033248;28;20172;-79
2022/06/01 11:27:57;;;;;;;0.30;0.30;;;26.60;1.00;;;;;;5034205;28;20644;-80
2022/06/01 11:30:26;;;;;;;0.20;0.20;;;26.60;1.00;;;;;;5037542;28;20680;-80
2022/06/01 11:33:15;;;;;;;0.30;0.30;;;27.10;1.00;;;;;;5039449;28;20264;-79
2022/06/01 11:35:51;;;;;;;0.33;0.33;;;27.70;1.00;;;;;;5037220;28;20180;-80
2022/06/01 11:38:26;;;;;;;0.40;0.40;;;28.00;1.00;;;;;;5038280;28;20649;-78
2022/06/01 11:41:23;;;;;;;0.40;0.40;;;27.70;1.00;;;;;;5036730;28;20207;-81
2022/06/01 11:44:34;;;;;;;0.30;0.30;;;27.30;1.00;;;;;;5042067;28;20648;-79
2022/06/01 11:47:07;;;;;;;0.40;0.40;;;27.50;1.00;;;;;;5037420;28;20983;-80
2022/06/01 11:49:42;;;;;;;0.30;0.30;;;27.40;1.00;;;;;;5037702;28;20179;-80
2022/06/01 11:52:31;;;;;;;0.40;0.40;;;27.40;1.00;;;;;;5038749;28;20210;-80
2022/06/01 11:55:30;;;;;;;0.30;0.30;;;27.40;1.00;;;;;;5038698;28;20206;-78
2022/06/01 11:58:12;;;;;;;0.30;0.30;;;26.70;1.00;;;;;;5038609;28;20553;-80
2022/06/01 12:00:54;;;;;;;0.47;0.47;;;26.20;1.00;;;;;;5037427;28;20291;-80
2022/06/01 12:03:19;;;;;;;0.20;0.20;;;26.00;1.00;;;;;;5038223;28;20259;-77
2022/06/01 12:06:06;;;;;;;0.33;0.33;;;26.20;1.00;;;;;;5034024;28;20218;-79
2022/06/01 12:08:45;;;;;;;0.30;0.30;;;26.40;1.00;;;;;;5032010;28;20249;-78
2022/06/01 12:11:34;;;;;;;0.30;0.30;;;26.30;1.00;;;;;;5033093;28;20190;-80
2022/06/01 12:14:00;;;;;;;0.40;0.40;;;26.60;1.00;;;;;;5033770;28;20212;-79
2022/06/01 12:16:27;;;;;;;0.43;0.43;;;26.90;1.00;;;;;;5034613;28;20176;-79
2022/06/01 12:19:09;;;;;;;0.30;0.30;;;27.30;1.00;;;;;;5038489;28;20262;-80
2022/06/01 12:21:43;;;;;;;0.50;0.50;;;27.70;1.00;;;;;;5042988;28;20208;-79
2022/06/01 12:30:13;;;;;;;0.50;0.50;;;27.90;1.00;;;;;;5035728;28;20178;-78
2022/06/01 12:33:00;;;;;;;0.40;0.40;;;28.20;1.00;;;;;;5032911;28;20203;-78
2022/06/01 12:35:40;;;;;;;0.40;0.40;;;28.10;1.00;;;;;;5032413;28;20182;-78
2022/06/01 12:38:09;;;;;;;0.50;0.50;;;28.30;1.00;;;;;;5032190;28;20843;-77
2022/06/01 12:40:36;;;;;;;0.50;0.50;;;28.30;1.00;;;;;;5035340;28;20245;-77
2022/06/01 12:43:05;;;;;;;0.40;0.40;;;27.60;1.00;;;;;;5034486;28;20223;-79
2022/06/01 12:45:40;;;;;;;0.40;0.40;;;27.40;1.00;;;;;;5036446;28;20254;-77
2022/06/01 12:48:10;;;;;;;0.40;0.40;;;27.50;1.00;;;;;;5035323;28;20171;-76
2022/06/01 12:51:07;;;;;;;0.33;0.33;;;27.20;1.00;;;;;;5032349;28;20175;-77
2022/06/01 12:53:45;;;;;;;0.40;0.40;;;26.70;1.00;;;;;;5032909;28;20192;-78
2022/06/01 12:56:16;;;;;;;0.40;0.40;;;26.40;1.00;;;;;;5033418;28;20656;-79
2022/06/01 12:58:43;;;;;;;0.20;0.20;;;26.10;1.00;;;;;;5041213;28;20192;-79
2022/06/01 13:01:09;;;;;;;0.30;0.30;;;26.00;1.00;;;;;;5035126;28;20211;-79
2022/06/01 13:03:47;;;;;;;0.30;0.30;;;25.70;1.00;;;;;;5042269;28;20191;-79
2022/06/01 13:06:17;;;;;;;0.20;0.20;;;25.40;1.00;;;;;;5032945;28;20180;-78
2022/06/01 13:08:42;;;;;;;0.30;0.30;;;25.30;1.00;;;;;;5044798;28;20168;-79
2022/06/01 13:11:18;;;;;;;0.30;0.30;;;25.20;1.00;;;;;;5049652;28;20292;-79
2022/06/01 13:13:45;;;;;;;0.30;0.30;;;25.20;1.00;;;;;;5038382;28;20194;-78
2022/06/01 13:16:10;;;;;;;0.20;0.20;;;25.10;1.00;;;;;;5039567;28;20186;-80
2022/06/01 13:18:45;;;;;;;0.27;0.27;;;24.90;1.00;;;;;;5043555;28;20235;-78
2022/06/01 13:21:32;;;;;;;0.30;0.30;;;24.80;1.00;;;;;;5044235;28;20230;-80
2022/06/01 13:24:07;;;;;;;0.20;0.20;;;24.80;1.00;;;;;;5045820;28;20179;-79
2022/06/01 13:26:51;;;;;;;0.30;0.30;;;24.80;1.00;;;;;;5049597;28;20225;-79
2022/06/01 13:29:34;;;;;;;0.40;0.40;;;24.70;1.00;;;;;;5047771;28;20170;-78
2022/06/01 13:32:07;;;;;;;0.30;0.30;;;24.40;1.00;;;;;;5040055;28;20607;-80
2022/06/01 13:34:32;;;;;;;0.33;0.33;;;24.30;1.00;;;;;;5040683;28;20195;-78
2022/06/01 13:37:26;;;;;;;0.20;0.20;;;24.40;1.00;;;;;;5044600;28;20192;-79
2022/06/01 13:40:00;;;;;;;0.30;0.30;;;25.00;1.00;;;;;;5037687;28;20541;-78
2022/06/01 13:42:47;;;;;;;0.30;0.30;;;25.20;1.00;;;;;;5043213;28;20210;-77